Time;durP1;ratioP1;P1;durP2;ratioP2;P2;SDS_P1;SDS_P2;PMS_P1;PMS_P2;Temp;Humidity;BMP_temperature;BMP_pressure;BME280_temperature;BME280_humidity;BME280_pressure;Samples;Min_cycle;Max_cycle;Signal;HPM_P1;HPM_P2
2023/06/13 00:02:24;;;;;;;18.48;12.23;;;29.20;99.90;;;;;;5086866;28;20021;-61
2023/06/13 00:04:51;;;;;;;13.00;7.97;;;29.20;99.90;;;;;;5087204;28;20247;-60
2023/06/13 00:07:18;;;;;;;11.80;7.85;;;29.20;99.90;;;;;;5086417;28;20049;-57
2023/06/13 00:09:44;;;;;;;13.18;9.15;;;29.40;99.90;;;;;;5087459;28;20066;-59
2023/06/13 00:12:11;;;;;;;11.38;6.97;;;29.40;99.90;;;;;;5097659;28;20034;-51
2023/06/13 00:14:37;;;;;;;10.23;7.43;;;29.30;99.90;;;;;;5107231;28;20069;-56
2023/06/13 00:17:04;;;;;;;11.73;8.65;;;29.30;99.90;;;;;;5106081;28;20028;-59
2023/06/13 00:19:32;;;;;;;48.17;44.17;;;29.30;99.90;;;;;;5075638;28;20193;-59
2023/06/13 00:21:59;;;;;;;30.55;28.05;;;29.40;99.90;;;;;;5082547;28;20102;-54
2023/06/13 00:24:26;;;;;;;92.28;84.80;;;29.50;99.90;;;;;;5076159;28;20036;-53
2023/06/13 00:26:53;;;;;;;45.92;42.05;;;29.60;99.90;;;;;;5084568;28;20075;-51
2023/06/13 00:29:20;;;;;;;12.70;11.40;;;29.50;99.90;;;;;;5089806;28;20051;-59
2023/06/13 00:31:48;;;;;;;10.75;9.65;;;29.50;99.90;;;;;;5095404;28;20029;-55
2023/06/13 00:34:15;;;;;;;9.27;8.32;;;29.50;99.90;;;;;;5094730;28;20095;-54
2023/06/13 00:36:44;;;;;;;10.88;8.55;;;29.40;99.90;;;;;;5084626;28;20025;-58
2023/06/13 00:39:11;;;;;;;10.95;9.25;;;29.30;99.90;;;;;;5086277;28;20028;-54
2023/06/13 00:41:37;;;;;;;6.57;5.65;;;29.50;99.90;;;;;;5086109;28;20042;-55
2023/06/13 00:44:06;;;;;;;7.13;3.90;;;29.50;99.90;;;;;;5085915;28;20036;-57
2023/06/13 00:46:35;;;;;;;9.85;6.50;;;29.40;99.90;;;;;;5086107;28;20069;-54
2023/06/13 00:49:04;;;;;;;9.15;6.10;;;29.50;99.90;;;;;;5086173;28;20203;-53
2023/06/13 00:51:31;;;;;;;10.85;4.75;;;29.50;99.90;;;;;;5086227;28;20032;-55
2023/06/13 00:54:00;;;;;;;4.57;2.55;;;29.50;99.90;;;;;;5085891;28;20296;-55
2023/06/13 00:56:28;;;;;;;6.45;1.88;;;29.50;99.90;;;;;;5086385;28;20327;-56
2023/06/13 00:58:58;;;;;;;5.65;1.70;;;29.50;99.90;;;;;;5086277;28;20232;-54
2023/06/13 01:01:25;;;;;;;3.53;1.48;;;29.50;99.90;;;;;;5085793;28;20227;-56
2023/06/13 01:03:52;;;;;;;4.75;1.45;;;29.50;99.90;;;;;;5085899;28;20016;-57
2023/06/13 01:06:18;;;;;;;3.08;1.13;;;29.50;99.90;;;;;;5085611;28;20028;-55
2023/06/13 01:08:45;;;;;;;4.85;1.45;;;29.60;99.90;;;;;;5089997;28;20034;-59
2023/06/13 01:11:28;;;;;;;3.53;1.60;;;29.50;99.90;;;;;;5088428;28;20083;-58
2023/06/13 01:14:03;;;;;;;6.65;1.90;;;29.40;99.90;;;;;;5106019;28;20212;-56
2023/06/13 01:16:57;;;;;;;4.00;1.52;;;29.40;99.90;;;;;;5105603;28;20361;-55
2023/06/13 01:19:40;;;;;;;4.85;1.38;;;29.50;99.90;;;;;;5104320;28;20052;-58
2023/06/13 01:22:18;;;;;;;5.05;1.30;;;29.50;99.90;;;;;;5082921;28;20016;-56
2023/06/13 01:25:10;;;;;;;4.28;1.15;;;29.50;99.90;;;;;;5079237;28;20320;-57
2023/06/13 01:27:38;;;;;;;;;;;29.40;99.90;;;;;;5077589;28;20047;-55
2023/06/13 01:30:06;;;;;;;5.45;0.98;;;29.40;99.90;;;;;;5085491;28;19948;-55
2023/06/13 01:32:34;;;;;;;5.80;1.10;;;29.30;99.90;;;;;;5085208;28;20024;-53
2023/06/13 01:35:03;;;;;;;3.65;0.90;;;29.30;99.90;;;;;;5085600;28;20178;-53
2023/06/13 01:37:30;;;;;;;5.70;1.10;;;29.40;99.90;;;;;;5084740;28;20028;-55
2023/06/13 01:39:56;;;;;;;96.47;89.82;;;29.40;99.90;;;;;;5085530;28;20021;-53
2023/06/13 01:42:23;;;;;;;13.25;11.93;;;29.40;99.90;;;;;;5085961;28;20079;-54
2023/06/13 01:44:49;;;;;;;7.72;4.80;;;29.30;99.90;;;;;;5096446;28;20212;-54
2023/06/13 01:47:41;;;;;;;6.60;2.67;;;29.40;99.90;;;;;;5105281;28;20012;-59
2023/06/13 01:50:39;;;;;;;5.18;2.17;;;29.40;99.90;;;;;;5103348;28;20032;-54
2023/06/13 01:53:21;;;;;;;4.95;1.65;;;29.40;99.90;;;;;;5097581;28;20032;-56
2023/06/13 01:55:57;;;;;;;;;;;29.40;99.90;;;;;;5100277;28;20027;-54
2023/06/13 01:58:30;;;;;;;8.50;1.55;;;29.30;99.90;;;;;;5104939;28;19907;-57
2023/06/13 02:01:01;;;;;;;5.95;1.30;;;29.30;99.90;;;;;;5094879;28;20048;-59
2023/06/13 02:03:28;;;;;;;1.77;1.00;;;29.40;99.90;;;;;;5103217;28;20073;-55
2023/06/13 02:05:55;;;;;;;8.10;2.13;;;29.40;99.90;;;;;;5104684;28;20016;-57
2023/06/13 02:08:21;;;;;;;3.60;1.45;;;29.40;99.90;;;;;;5104669;28;20112;-55
2023/06/13 02:10:48;;;;;;;4.22;1.75;;;29.40;99.90;;;;;;5104815;28;20038;-54
2023/06/13 02:13:14;;;;;;;4.95;1.90;;;29.40;99.90;;;;;;5104610;28;20058;-57
2023/06/13 02:15:41;;;;;;;7.85;1.95;;;29.40;99.90;;;;;;5104732;28;20028;-56
2023/06/13 02:18:09;;;;;;;4.03;1.60;;;29.40;99.90;;;;;;5104658;28;20024;-56
2023/06/13 02:20:36;;;;;;;7.78;1.60;;;29.40;99.90;;;;;;5104567;28;20020;-55
2023/06/13 02:23:03;;;;;;;7.30;1.60;;;29.40;99.90;;;;;;5104237;28;20046;-57
2023/06/13 02:25:29;;;;;;;10.65;5.10;;;29.40;99.90;;;;;;5098045;28;20068;-58
2023/06/13 02:27:56;;;;;;;13.55;4.40;;;29.40;99.90;;;;;;5097884;28;20019;-55
2023/06/13 02:30:22;;;;;;;10.38;4.47;;;29.30;99.90;;;;;;5104972;28;20035;-53
2023/06/13 02:32:49;;;;;;;17.08;14.65;;;29.30;99.90;;;;;;5104436;28;20028;-59
2023/06/13 02:35:15;;;;;;;15.05;13.15;;;29.40;99.90;;;;;;5104603;28;20035;-54
2023/06/13 02:37:43;;;;;;;8.25;3.47;;;29.40;99.90;;;;;;5104129;28;20070;-54
2023/06/13 02:40:09;;;;;;;9.82;3.40;;;29.50;99.90;;;;;;5087451;28;20025;-55
2023/06/13 02:42:36;;;;;;;12.05;2.78;;;29.50;99.90;;;;;;5078415;28;20020;-63
2023/06/13 02:45:03;;;;;;;5.88;2.22;;;29.60;99.90;;;;;;5084325;28;20099;-54
2023/06/13 02:47:29;;;;;;;7.53;2.40;;;29.60;99.90;;;;;;5084060;28;20028;-57
2023/06/13 02:49:56;;;;;;;6.82;2.30;;;29.70;99.90;;;;;;5074982;28;20284;-54
2023/06/13 02:52:24;;;;;;;7.88;2.60;;;29.70;99.90;;;;;;5065882;28;20032;-59
2023/06/13 02:54:50;;;;;;;5.85;2.83;;;29.80;99.90;;;;;;5063637;28;20202;-59
2023/06/13 02:57:17;;;;;;;13.98;3.20;;;29.70;99.90;;;;;;5063606;28;20212;-56
2023/06/13 02:59:43;;;;;;;8.90;3.10;;;29.70;99.90;;;;;;5069895;28;20064;-60
2023/06/13 03:02:10;;;;;;;9.02;3.20;;;29.70;99.90;;;;;;5083450;28;20029;-56
2023/06/13 03:04:37;;;;;;;7.03;2.22;;;29.60;99.90;;;;;;5083666;28;20028;-59
2023/06/13 03:07:05;;;;;;;8.88;2.60;;;29.50;99.90;;;;;;5082216;28;20243;-57
2023/06/13 03:09:32;;;;;;;7.20;1.98;;;29.50;99.90;;;;;;5084177;28;20237;-58
2023/06/13 03:11:59;;;;;;;10.05;2.33;;;29.50;99.90;;;;;;5083727;28;20027;-57
2023/06/13 03:14:26;;;;;;;6.50;1.90;;;29.50;99.90;;;;;;5083879;28;20053;-56
2023/06/13 03:16:52;;;;;;;5.15;1.65;;;29.50;99.90;;;;;;5083681;28;20065;-60
2023/06/13 03:19:19;;;;;;;8.32;1.35;;;29.40;99.90;;;;;;5083938;28;20025;-56
2023/06/13 03:21:45;;;;;;;4.35;1.00;;;29.40;99.90;;;;;;5083319;28;20031;-55
2023/06/13 03:24:13;;;;;;;5.93;1.17;;;29.30;99.90;;;;;;5083662;28;20024;-54
2023/06/13 03:26:40;;;;;;;3.35;1.20;;;29.30;99.90;;;;;;5083624;28;20021;-56
2023/06/13 03:29:07;;;;;;;5.78;1.15;;;29.30;99.90;;;;;;5083537;28;20024;-55
2023/06/13 03:31:34;;;;;;;4.50;1.05;;;29.20;99.90;;;;;;5083605;28;20051;-55
2023/06/13 03:34:00;;;;;;;6.95;1.25;;;29.20;99.90;;;;;;5080148;28;20025;-56
2023/06/13 03:36:26;;;;;;;5.15;0.95;;;29.10;99.90;;;;;;5083117;28;20070;-56
2023/06/13 03:38:53;;;;;;;4.30;0.80;;;29.00;99.90;;;;;;5083586;28;20340;-60
2023/06/13 03:41:21;;;;;;;8.75;0.98;;;28.90;99.90;;;;;;5083444;28;20023;-59
2023/06/13 03:43:47;;;;;;;7.90;0.95;;;29.00;99.90;;;;;;5083337;28;20040;-54
2023/06/13 03:46:14;;;;;;;6.43;1.02;;;28.90;99.90;;;;;;5083509;28;20028;-53
2023/06/13 03:48:41;;;;;;;5.32;1.30;;;28.90;99.90;;;;;;5083524;28;20324;-54
2023/06/13 03:51:07;;;;;;;8.65;1.35;;;28.80;99.90;;;;;;5088144;28;20028;-53
2023/06/13 03:53:34;;;;;;;7.40;1.20;;;28.90;99.90;;;;;;5087960;28;20032;-55
2023/06/13 03:56:02;;;;;;;6.25;1.30;;;29.10;99.90;;;;;;5082108;28;20025;-56
2023/06/13 03:58:29;;;;;;;4.40;1.00;;;29.20;99.90;;;;;;5080928;28;20075;-59
2023/06/13 04:00:55;;;;;;;5.00;1.20;;;29.30;99.90;;;;;;5080900;28;20024;-53
2023/06/13 04:03:22;;;;;;;9.57;1.42;;;29.30;99.90;;;;;;5083276;28;20085;-59
2023/06/13 04:05:48;;;;;;;4.78;1.00;;;29.20;99.90;;;;;;5082860;28;20035;-53
2023/06/13 04:08:15;;;;;;;4.60;0.80;;;29.00;99.90;;;;;;5083020;28;20060;-55
2023/06/13 04:10:41;;;;;;;6.13;1.00;;;28.90;99.90;;;;;;5083206;28;20217;-55
2023/06/13 04:13:08;;;;;;;8.27;1.00;;;28.80;99.90;;;;;;5082972;28;20082;-56
2023/06/13 04:15:34;;;;;;;5.78;0.95;;;28.90;99.90;;;;;;5083351;28;20024;-55
2023/06/13 04:18:01;;;;;;;7.38;1.17;;;28.80;99.90;;;;;;5083151;28;20376;-58
2023/06/13 04:20:28;;;;;;;4.63;0.90;;;28.70;99.90;;;;;;5086301;28;20063;-55
2023/06/13 04:22:55;;;;;;;8.48;1.00;;;28.60;99.90;;;;;;5086733;28;20097;-56
2023/06/13 04:25:22;;;;;;;7.03;1.00;;;28.50;99.90;;;;;;5087164;28;20039;-54
2023/06/13 04:27:49;;;;;;;5.60;0.80;;;28.50;99.90;;;;;;5086424;28;20032;-56
2023/06/13 04:30:16;;;;;;;5.35;0.90;;;28.40;99.90;;;;;;5086982;28;20048;-56
2023/06/13 04:32:45;;;;;;;5.97;0.77;;;28.50;99.90;;;;;;5086455;28;20320;-55
2023/06/13 04:35:16;;;;;;;7.05;0.98;;;28.50;99.90;;;;;;5086366;28;20064;-55
2023/06/13 04:37:45;;;;;;;6.38;1.00;;;28.40;99.90;;;;;;5086401;28;20056;-59
2023/06/13 04:40:13;;;;;;;6.97;0.70;;;28.40;99.90;;;;;;5071570;28;20029;-58
2023/06/13 04:42:39;;;;;;;8.45;1.05;;;28.30;99.90;;;;;;5073089;28;20028;-57
2023/06/13 04:45:06;;;;;;;7.35;0.90;;;28.30;99.90;;;;;;5077577;28;20245;-55
2023/06/13 04:47:33;;;;;;;8.43;1.33;;;28.30;99.90;;;;;;5066695;28;20040;-55
2023/06/13 04:50:00;;;;;;;6.45;1.00;;;28.30;99.90;;;;;;5066460;28;20039;-55
2023/06/13 04:52:27;;;;;;;8.93;1.13;;;28.40;99.90;;;;;;5066122;28;20066;-56
2023/06/13 04:54:54;;;;;;;5.97;0.77;;;28.40;99.90;;;;;;5066453;28;20037;-57
2023/06/13 04:57:21;;;;;;;6.47;0.90;;;28.30;99.90;;;;;;5065854;28;20024;-55
2023/06/13 04:59:48;;;;;;;5.85;0.65;;;28.30;99.90;;;;;;5066358;28;20054;-57
2023/06/13 05:02:14;;;;;;;6.03;0.63;;;28.30;99.90;;;;;;5065906;28;20071;-58
2023/06/13 05:04:42;;;;;;;6.43;0.90;;;28.40;99.90;;;;;;5066081;28;20033;-55
2023/06/13 05:07:08;;;;;;;6.53;1.23;;;28.30;99.90;;;;;;5065678;28;20118;-56
2023/06/13 05:09:35;;;;;;;6.93;1.40;;;28.30;99.90;;;;;;5066511;28;20041;-55
2023/06/13 05:12:02;;;;;;;7.03;1.40;;;28.30;99.90;;;;;;5085584;28;20271;-55
2023/06/13 05:14:29;;;;;;;6.97;1.27;;;28.30;99.90;;;;;;5090759;28;20032;-56
2023/06/13 05:16:55;;;;;;;12.65;1.45;;;28.30;99.90;;;;;;5101519;28;20052;-57
2023/06/13 05:19:23;;;;;;;7.57;1.08;;;28.30;99.90;;;;;;5106077;28;20078;-55
2023/06/13 05:21:50;;;;;;;6.43;0.85;;;28.30;99.90;;;;;;5084992;28;20024;-55
2023/06/13 05:24:17;;;;;;;9.82;0.80;;;28.30;99.90;;;;;;5065873;28;20033;-56
2023/06/13 05:26:43;;;;;;;6.15;0.98;;;28.30;99.90;;;;;;5065404;28;20021;-57
2023/06/13 05:29:09;;;;;;;7.90;1.10;;;28.30;99.90;;;;;;5065736;28;20059;-60
2023/06/13 05:31:36;;;;;;;5.55;0.68;;;28.20;99.90;;;;;;5065423;28;20427;-58
2023/06/13 05:34:03;;;;;;;9.15;0.98;;;28.20;99.90;;;;;;5065510;28;20028;-53
2023/06/13 05:36:29;;;;;;;9.27;0.98;;;28.20;99.90;;;;;;5065250;28;20051;-59
2023/06/13 05:38:57;;;;;;;4.55;0.60;;;28.20;99.90;;;;;;5065531;28;20037;-55
2023/06/13 05:41:23;;;;;;;5.03;1.08;;;28.30;99.90;;;;;;5065196;28;20213;-54
2023/06/13 05:43:51;;;;;;;6.07;0.82;;;28.20;99.90;;;;;;5065127;28;20021;-56
2023/06/13 05:46:17;;;;;;;4.70;0.73;;;28.20;99.90;;;;;;5079978;28;20024;-58
2023/06/13 05:48:44;;;;;;;7.25;0.68;;;28.20;99.90;;;;;;5085074;28;20036;-55
2023/06/13 05:51:11;;;;;;;7.32;0.70;;;28.20;99.90;;;;;;5084513;28;20053;-54
2023/06/13 05:53:37;;;;;;;5.28;0.50;;;28.20;99.90;;;;;;5084927;28;20036;-57
2023/06/13 05:56:06;;;;;;;5.53;0.60;;;28.10;99.90;;;;;;5084778;28;20043;-63
2023/06/13 05:58:34;;;;;;;5.40;0.93;;;28.10;99.90;;;;;;5084794;28;20017;-57
2023/06/13 06:01:01;;;;;;;4.03;0.90;;;28.10;99.90;;;;;;5084759;28;20032;-55
2023/06/13 06:03:28;;;;;;;11.57;1.23;;;28.10;99.90;;;;;;5084763;28;20204;-58
2023/06/13 06:05:55;;;;;;;5.82;0.80;;;28.00;99.90;;;;;;5084625;28;20142;-59
2023/06/13 06:08:21;;;;;;;6.93;0.90;;;28.10;99.90;;;;;;5084570;28;20067;-54
2023/06/13 06:10:48;;;;;;;7.65;0.98;;;28.00;99.90;;;;;;5084597;28;20028;-55
2023/06/13 06:13:15;;;;;;;8.05;0.80;;;28.00;99.90;;;;;;5084442;28;20024;-54
2023/06/13 06:15:41;;;;;;;4.60;0.60;;;28.00;99.90;;;;;;5084458;28;20074;-55
2023/06/13 06:18:08;;;;;;;4.78;0.70;;;28.00;99.90;;;;;;5084459;28;20363;-54
2023/06/13 06:20:35;;;;;;;7.88;0.82;;;28.00;99.90;;;;;;5084335;28;20046;-54
2023/06/13 06:23:01;;;;;;;7.32;0.70;;;28.00;99.90;;;;;;5084500;28;20028;-64
2023/06/13 06:25:28;;;;;;;7.70;0.90;;;28.00;99.90;;;;;;5084445;28;20028;-54
2023/06/13 06:27:55;;;;;;;9.15;0.82;;;28.00;99.90;;;;;;5084251;28;20308;-60
2023/06/13 06:30:21;;;;;;;4.55;0.73;;;28.00;99.90;;;;;;5081665;28;20243;-57
2023/06/13 06:32:48;;;;;;;4.75;0.75;;;28.00;99.90;;;;;;5076887;28;20331;-57
2023/06/13 06:35:15;;;;;;;12.88;1.20;;;28.00;99.90;;;;;;5084463;28;20036;-56
2023/06/13 06:37:43;;;;;;;6.90;1.00;;;28.00;99.90;;;;;;5084202;28;20044;-56
2023/06/13 06:40:10;;;;;;;6.78;0.80;;;28.00;99.90;;;;;;5084110;28;20083;-58
2023/06/13 06:42:37;;;;;;;6.15;0.80;;;28.00;99.90;;;;;;5083829;28;20020;-57
2023/06/13 06:45:04;;;;;;;5.05;0.90;;;28.00;99.90;;;;;;5084527;28;20036;-57
2023/06/13 06:47:31;;;;;;;4.85;0.80;;;28.00;99.90;;;;;;5084270;28;20021;-58
2023/06/13 06:49:57;;;;;;;7.13;0.80;;;28.00;99.90;;;;;;5084334;28;20054;-59
2023/06/13 06:52:24;;;;;;;7.13;0.60;;;28.00;99.90;;;;;;5084247;28;20332;-56
2023/06/13 06:54:50;;;;;;;4.05;0.50;;;28.10;99.90;;;;;;5084188;28;20036;-57
2023/06/13 06:57:17;;;;;;;7.82;0.75;;;28.10;99.90;;;;;;5083832;28;20195;-56
2023/06/13 06:59:43;;;;;;;7.40;0.70;;;28.00;99.90;;;;;;5084494;28;20032;-56
2023/06/13 07:02:10;;;;;;;7.82;0.90;;;28.10;99.90;;;;;;5083913;28;20074;-57
2023/06/13 07:04:36;;;;;;;5.03;0.60;;;28.10;99.90;;;;;;5084195;28;20028;-55
2023/06/13 07:07:03;;;;;;;6.60;1.25;;;28.10;99.90;;;;;;5084058;28;20056;-58
2023/06/13 07:09:29;;;;;;;7.45;0.70;;;28.10;99.90;;;;;;5084151;28;20134;-54
2023/06/13 07:11:57;;;;;;;9.05;0.73;;;28.10;99.90;;;;;;5083835;28;20088;-56
2023/06/13 07:14:25;;;;;;;6.65;0.63;;;28.10;99.90;;;;;;5083934;28;20040;-55
2023/06/13 07:16:54;;;;;;;7.13;0.85;;;28.10;99.90;;;;;;5083763;28;20062;-58
2023/06/13 07:19:23;;;;;;;9.50;0.98;;;28.10;99.90;;;;;;5083946;28;20020;-60
2023/06/13 07:21:49;;;;;;;4.07;0.70;;;28.10;99.90;;;;;;5083736;28;20028;-55
2023/06/13 07:24:16;;;;;;;8.25;1.13;;;28.10;99.90;;;;;;5083793;28;20351;-53
2023/06/13 07:26:42;;;;;;;8.00;0.80;;;28.10;99.90;;;;;;5083650;28;20016;-55
2023/06/13 07:29:09;;;;;;;8.63;1.30;;;28.10;99.90;;;;;;5083947;28;20143;-60
2023/06/13 07:31:37;;;;;;;12.20;1.13;;;28.10;99.90;;;;;;5083830;28;20083;-57
2023/06/13 07:34:03;;;;;;;7.47;0.88;;;28.10;99.90;;;;;;5083871;28;20044;-59
2023/06/13 07:36:30;;;;;;;4.80;0.82;;;28.10;99.90;;;;;;5083505;28;20107;-58
2023/06/13 07:38:56;;;;;;;8.75;1.08;;;28.10;99.90;;;;;;5083773;28;20363;-56
2023/06/13 07:41:23;;;;;;;7.72;0.70;;;28.00;99.90;;;;;;5083568;28;20044;-56
2023/06/13 07:43:50;;;;;;;9.88;1.00;;;28.00;99.90;;;;;;5083569;28;20089;-54
2023/06/13 07:46:17;;;;;;;9.20;0.82;;;28.00;99.90;;;;;;5083511;28;20025;-54
2023/06/13 07:48:43;;;;;;;5.90;0.50;;;28.00;99.90;;;;;;5083584;28;20024;-58
2023/06/13 07:51:13;;;;;;;4.57;0.73;;;28.00;99.90;;;;;;5083715;28;20252;-59
2023/06/13 07:53:40;;;;;;;7.25;0.77;;;28.10;99.90;;;;;;5084575;28;20040;-57
2023/06/13 07:56:07;;;;;;;7.30;0.77;;;28.00;99.90;;;;;;5087027;28;20304;-56
2023/06/13 07:58:33;;;;;;;7.22;0.70;;;28.00;99.90;;;;;;5087130;28;20036;-59
2023/06/13 08:01:00;;;;;;;4.70;0.85;;;27.90;99.90;;;;;;5087265;28;20072;-58
2023/06/13 08:03:27;;;;;;;5.75;0.60;;;28.00;99.90;;;;;;5087332;28;20197;-60
2023/06/13 08:05:53;;;;;;;6.55;0.60;;;27.90;99.90;;;;;;5087243;28;20322;-55
2023/06/13 08:08:20;;;;;;;3.42;0.70;;;27.90;99.90;;;;;;5087024;28;20106;-56
2023/06/13 08:10:46;;;;;;;7.32;0.60;;;27.90;99.90;;;;;;5087263;28;20208;-55
2023/06/13 08:13:13;;;;;;;5.38;0.60;;;27.80;99.90;;;;;;5086852;28;20324;-56
2023/06/13 08:15:40;;;;;;;2.63;0.60;;;27.80;99.90;;;;;;5085665;28;20102;-57
2023/06/13 08:18:06;;;;;;;6.47;0.80;;;27.80;99.90;;;;;;5086894;28;20058;-57
2023/06/13 08:20:33;;;;;;;6.53;0.90;;;27.90;99.90;;;;;;5086727;28;20362;-55
2023/06/13 08:22:59;;;;;;;7.32;0.80;;;27.80;99.90;;;;;;5086971;28;20024;-58
2023/06/13 08:25:26;;;;;;;5.30;0.80;;;27.80;99.90;;;;;;5086925;28;20050;-54
2023/06/13 08:27:52;;;;;;;5.75;0.60;;;27.90;99.90;;;;;;5086615;28;20036;-58
2023/06/13 08:30:19;;;;;;;3.70;0.75;;;27.90;99.90;;;;;;5087113;28;20054;-55
2023/06/13 08:32:46;;;;;;;6.63;0.80;;;27.80;99.90;;;;;;5086581;28;20025;-61
2023/06/13 08:35:13;;;;;;;8.02;0.60;;;27.80;99.90;;;;;;5086820;28;20036;-55
2023/06/13 08:37:40;;;;;;;5.40;0.60;;;27.70;99.80;;;;;;5086626;28;20061;-56
2023/06/13 08:40:09;;;;;;;7.80;0.88;;;27.70;99.80;;;;;;5086873;28;20066;-59
2023/06/13 08:42:39;;;;;;;8.95;0.80;;;27.60;99.70;;;;;;5086586;28;20020;-56
2023/06/13 08:45:10;;;;;;;4.88;0.55;;;27.60;99.60;;;;;;5086757;28;20032;-56
2023/06/13 08:47:38;;;;;;;10.90;0.82;;;27.50;99.60;;;;;;5086277;28;20032;-55
2023/06/13 08:50:05;;;;;;;8.82;0.80;;;27.50;99.70;;;;;;5086536;28;20304;-60
2023/06/13 08:52:39;;;;;;;4.78;0.73;;;27.50;99.70;;;;;;5086239;28;20024;-60
2023/06/13 08:55:12;;;;;;;3.35;0.73;;;27.50;99.80;;;;;;5086394;28;20040;-56
2023/06/13 08:57:40;;;;;;;4.80;0.80;;;27.50;99.80;;;;;;5086113;28;20017;-61
2023/06/13 09:00:10;;;;;;;4.50;0.63;;;27.40;99.70;;;;;;5086483;28;20067;-58
2023/06/13 09:02:37;;;;;;;4.47;0.70;;;27.40;99.90;;;;;;5086107;28;20079;-58
2023/06/13 09:05:05;;;;;;;7.35;0.80;;;27.40;99.70;;;;;;5085976;28;20026;-60
2023/06/13 09:07:34;;;;;;;5.35;0.88;;;27.40;99.80;;;;;;5085802;28;20348;-63
2023/06/13 09:10:01;;;;;;;5.18;0.60;;;27.40;99.90;;;;;;5085671;28;20036;-54
2023/06/13 09:12:28;;;;;;;5.22;0.90;;;27.40;99.80;;;;;;5085875;28;20066;-60
2023/06/13 09:14:54;;;;;;;6.68;0.80;;;27.40;99.90;;;;;;5086141;28;20079;-55
2023/06/13 09:17:21;;;;;;;4.43;0.68;;;27.40;99.90;;;;;;5085606;28;20019;-56
2023/06/13 09:19:48;;;;;;;7.82;0.82;;;27.40;99.80;;;;;;5086228;28;20051;-55
2023/06/13 09:22:17;;;;;;;5.65;0.77;;;27.30;99.80;;;;;;5085613;28;20061;-58
2023/06/13 09:24:44;;;;;;;8.88;0.60;;;27.30;99.80;;;;;;5085805;28;20143;-57
2023/06/13 09:27:11;;;;;;;3.00;0.60;;;27.30;99.80;;;;;;5085705;28;20027;-54
2023/06/13 09:29:38;;;;;;;6.05;0.63;;;27.30;99.70;;;;;;5085747;28;20032;-55
2023/06/13 09:32:05;;;;;;;5.47;0.60;;;27.20;99.60;;;;;;5085322;28;20028;-61
2023/06/13 09:34:33;;;;;;;3.95;0.52;;;27.20;99.60;;;;;;5085684;28;20085;-56
2023/06/13 09:36:59;;;;;;;5.53;0.60;;;27.20;99.40;;;;;;5085343;28;20074;-57
2023/06/13 09:39:28;;;;;;;6.50;0.80;;;27.20;99.30;;;;;;5085360;28;20071;-59
2023/06/13 09:41:59;;;;;;;6.72;0.80;;;27.10;99.10;;;;;;5085228;28;20051;-56
2023/06/13 09:44:30;;;;;;;8.05;0.63;;;27.10;99.10;;;;;;5085424;28;20036;-54
2023/06/13 09:46:56;;;;;;;5.82;0.60;;;27.10;99.00;;;;;;5084982;28;20021;-59
2023/06/13 09:49:23;;;;;;;7.95;0.55;;;27.00;98.80;;;;;;5085313;28;20095;-56
2023/06/13 09:51:52;;;;;;;3.83;0.52;;;27.10;98.70;;;;;;5085026;28;20025;-55
2023/06/13 09:54:18;;;;;;;3.92;0.70;;;27.00;98.60;;;;;;5084692;28;20106;-61
2023/06/13 09:56:45;;;;;;;8.88;0.95;;;27.00;98.50;;;;;;5084932;28;20028;-64
2023/06/13 09:59:21;;;;;;;9.30;0.68;;;26.90;98.40;;;;;;5085091;28;20088;-62
2023/06/13 10:01:48;;;;;;;4.18;0.70;;;26.90;98.40;;;;;;5084780;28;20028;-56
2023/06/13 10:04:15;;;;;;;7.43;0.98;;;26.80;98.40;;;;;;5085036;28;20039;-61
2023/06/13 10:06:42;;;;;;;6.97;1.02;;;26.80;98.50;;;;;;5084548;28;20040;-56
2023/06/13 10:09:12;;;;;;;4.93;0.57;;;26.80;98.50;;;;;;5084918;28;20113;-57
2023/06/13 10:11:43;;;;;;;5.05;0.60;;;26.80;98.60;;;;;;5084918;28;20025;-56
2023/06/13 10:14:15;;;;;;;4.85;0.70;;;26.90;98.60;;;;;;5084695;28;20027;-54
2023/06/13 10:16:46;;;;;;;3.08;0.68;;;26.80;98.50;;;;;;5083817;28;20041;-56
2023/06/13 10:19:22;;;;;;;5.03;1.27;;;26.80;98.50;;;;;;5084727;28;20028;-55
2023/06/13 10:21:49;;;;;;;6.50;1.10;;;26.90;98.50;;;;;;5084461;28;20020;-55
2023/06/13 10:24:20;;;;;;;7.05;1.67;;;26.90;98.50;;;;;;5084651;28;20205;-55
2023/06/13 10:26:49;;;;;;;11.88;1.40;;;27.00;98.60;;;;;;5084383;28;20100;-61
2023/06/13 10:29:36;;;;;;;3.65;1.10;;;26.90;98.50;;;;;;5084590;28;20033;-61
2023/06/13 10:32:24;;;;;;;3.65;1.42;;;26.90;98.50;;;;;;5084454;28;20024;-57
2023/06/13 10:35:31;;;;;;;9.07;1.38;;;26.90;98.60;;;;;;5084121;28;20021;-57
2023/06/13 10:38:37;;;;;;;9.88;1.65;;;26.80;98.50;;;;;;5084252;28;20028;-59
2023/06/13 10:41:37;;;;;;;3.63;1.10;;;26.90;98.60;;;;;;5084122;28;20024;-55
2023/06/13 10:44:59;;;;;;;8.30;1.50;;;26.80;98.60;;;;;;5070894;28;20111;-54
2023/06/13 10:47:29;;;;;;;9.25;1.50;;;26.90;98.60;;;;;;5041969;28;20100;-54
2023/06/13 10:49:58;;;;;;;7.22;1.35;;;26.90;98.70;;;;;;5082953;28;20100;-54
2023/06/13 10:52:25;;;;;;;8.48;1.58;;;26.90;98.80;;;;;;5084323;28;20050;-54
2023/06/13 10:54:58;;;;;;;7.45;1.50;;;26.90;98.80;;;;;;5084205;28;20045;-60
2023/06/13 10:57:48;;;;;;;7.07;1.30;;;26.90;98.90;;;;;;5083834;28;20032;-59
2023/06/13 11:00:35;;;;;;;6.60;1.70;;;26.90;99.00;;;;;;5064014;28;20113;-59
2023/06/13 11:03:12;;;;;;;9.52;1.48;;;26.90;99.00;;;;;;5083794;28;20208;-61
2023/06/13 11:05:49;;;;;;;8.27;1.33;;;26.90;99.10;;;;;;5083711;28;20058;-56
2023/06/13 11:08:16;;;;;;;7.85;1.58;;;27.00;99.30;;;;;;5083502;28;20289;-54
2023/06/13 11:10:45;;;;;;;7.80;1.40;;;27.10;99.40;;;;;;5083816;28;20036;-58
2023/06/13 11:13:20;;;;;;;8.50;1.25;;;27.10;99.30;;;;;;5083878;28;20087;-58
2023/06/13 11:15:48;;;;;;;8.27;1.70;;;27.20;99.40;;;;;;5083695;28;20060;-55
2023/06/13 11:18:14;;;;;;;8.27;1.67;;;27.20;99.40;;;;;;5083701;28;20301;-59
2023/06/13 11:20:51;;;;;;;6.95;1.92;;;27.50;99.40;;;;;;5084364;28;20082;-54
2023/06/13 11:23:21;;;;;;;8.02;1.98;;;27.70;99.20;;;;;;5083740;28;20032;-55
2023/06/13 11:25:49;;;;;;;5.50;1.85;;;28.10;98.50;;;;;;5083571;28;20047;-57
2023/06/13 11:28:18;;;;;;;6.20;2.35;;;28.40;97.90;;;;;;5085745;28;20036;-57
2023/06/13 11:30:47;;;;;;;8.43;3.00;;;28.50;97.10;;;;;;5087744;28;20032;-53
2023/06/13 11:33:16;;;;;;;6.25;2.58;;;28.70;96.50;;;;;;5087574;28;20056;-57
2023/06/13 11:35:49;;;;;;;7.95;2.17;;;28.80;96.10;;;;;;5087591;28;20087;-57
2023/06/13 11:38:22;;;;;;;7.30;2.45;;;28.80;95.40;;;;;;5087443;28;20073;-55
2023/06/13 11:40:57;;;;;;;6.18;1.55;;;28.90;95.20;;;;;;5087518;28;20333;-57
2023/06/13 11:43:25;;;;;;;8.00;1.55;;;29.00;94.80;;;;;;5087465;28;20029;-56
2023/06/13 11:46:00;;;;;;;4.72;1.48;;;29.20;94.40;;;;;;5087651;28;20083;-55
2023/06/13 11:48:27;;;;;;;4.82;1.00;;;29.30;94.20;;;;;;5087413;28;20029;-59
2023/06/13 11:51:07;;;;;;;7.20;1.40;;;29.40;93.90;;;;;;5087208;28;20024;-56
2023/06/13 11:53:45;;;;;;;3.50;1.10;;;29.50;93.60;;;;;;5087542;28;20036;-53
2023/06/13 11:56:11;;;;;;;4.57;1.58;;;29.60;93.20;;;;;;5086958;28;20036;-53
2023/06/13 11:58:38;;;;;;;4.22;1.20;;;29.60;93.10;;;;;;5086688;28;20050;-56
2023/06/13 12:01:05;;;;;;;4.32;1.50;;;29.60;93.10;;;;;;5087153;28;20088;-61
2023/06/13 12:03:37;;;;;;;4.38;1.17;;;29.50;93.20;;;;;;5086410;28;20285;-58
2023/06/13 12:06:06;;;;;;;4.78;1.17;;;29.40;93.30;;;;;;5086538;28;20072;-54
2023/06/13 12:08:39;;;;;;;2.75;0.90;;;29.30;93.70;;;;;;5086963;28;20072;-59
2023/06/13 12:11:06;;;;;;;3.78;0.90;;;29.10;93.90;;;;;;5086895;28;20032;-58
2023/06/13 12:13:36;;;;;;;6.47;1.20;;;29.10;94.20;;;;;;5087023;28;20036;-56
2023/06/13 12:16:07;;;;;;;12.07;1.42;;;29.10;94.30;;;;;;5086331;28;20052;-51
2023/06/13 12:18:34;;;;;;;2.97;0.90;;;29.00;94.40;;;;;;5086856;28;20028;-67
2023/06/13 12:21:01;;;;;;;5.07;0.90;;;29.00;94.50;;;;;;5086886;28;20025;-54
2023/06/13 12:23:28;;;;;;;3.15;1.08;;;29.00;94.30;;;;;;5086663;28;20048;-67
2023/06/13 12:25:55;;;;;;;3.03;1.00;;;28.90;94.30;;;;;;5086574;28;20039;-67
2023/06/13 12:28:22;;;;;;;3.17;0.88;;;28.90;94.30;;;;;;5086746;28;20047;-68
2023/06/13 12:30:53;;;;;;;4.13;0.90;;;28.90;94.30;;;;;;5086558;28;20021;-58
2023/06/13 12:33:34;;;;;;;10.75;1.88;;;28.90;94.30;;;;;;5086545;28;20052;-58
2023/06/13 12:36:03;;;;;;;13.90;2.00;;;28.90;94.30;;;;;;5086761;28;20216;-56
2023/06/13 12:38:31;;;;;;;5.72;1.20;;;28.90;94.20;;;;;;5086317;28;20035;-56
2023/06/13 12:40:59;;;;;;;17.75;1.63;;;28.90;94.20;;;;;;5085745;28;20024;-56
2023/06/13 12:43:27;;;;;;;4.65;0.90;;;28.70;93.20;;;;;;5086449;28;20016;-55
2023/06/13 12:45:58;;;;;;;7.05;0.88;;;28.60;93.10;;;;;;5086378;28;20276;-60
2023/06/13 12:48:26;;;;;;;7.53;1.20;;;28.50;93.40;;;;;;5086562;28;20056;-56
2023/06/13 12:50:54;;;;;;;6.75;0.70;;;28.60;93.50;;;;;;5086300;28;20443;-58
2023/06/13 12:53:23;;;;;;;7.13;1.08;;;28.60;93.30;;;;;;5086226;28;20240;-56
2023/06/13 12:55:51;;;;;;;3.88;0.95;;;28.50;93.00;;;;;;5086362;28;20025;-59